Guilin, China
Current Conditions -  °F | °C
As of 6:00 PM on Tuesday 27 Jan 2015 (Local Time) from ZGKL Reporting Station
Light Rain Light Rain  
Wind Chill: 52°   Ceiling: 5600
Heat Index: 52°   Visibility: 1.6mi
Dew Point: 48°   Wind: 7mph
Humidity: 88%   Direction: 30°NNE
Pressure: 30.03"   Gusts: NA
Location:  25.28°N, 110.28°E
Report Text: ZGKL 271000Z 03003MPS 010V160 2600 -RA BR SCT033OVC05611/09 Q1017 NOSIG
Loading
Personal Weather Stations






























Interactive Weather Map New forecast layout! Learn more

10-Day Weather Forecast

Advertisements
Track Severe Weather on mobile